Time;durP1;ratioP1;P1;durP2;ratioP2;P2;SDS_P1;SDS_P2;PMS_P1;PMS_P2;Temp;Humidity;BMP_temperature;BMP_pressure;BME280_temperature;BME280_humidity;BME280_pressure;Samples;Min_cycle;Max_cycle;Signal;HPM_P1;HPM_P2
2022/05/16 00:01:53;;;;;;;12.85;4.75;;;;;;;;;;5000345;28;20041;-61
2022/05/16 00:04:19;;;;;;;10.38;4.78;;;;;;;;;;5003844;28;20122;-60
2022/05/16 00:06:45;;;;;;;13.77;4.55;;;;;;;;;;5002722;28;20034;-60
2022/05/16 00:09:11;;;;;;;9.57;4.75;;;;;;;;;;5006847;28;20081;-61
2022/05/16 00:11:37;;;;;;;9.60;4.82;;;;;;;;;;5004583;28;20117;-61
2022/05/16 00:14:03;;;;;;;14.18;5.00;;;;;;;;;;5008240;28;20048;-61
2022/05/16 00:16:29;;;;;;;11.63;4.90;;;;;;;;;;5007908;28;20551;-61
2022/05/16 00:18:55;;;;;;;8.48;5.38;;;;;;;;;;5006810;28;20081;-60
2022/05/16 00:21:21;;;;;;;12.75;4.75;;;;;;;;;;5012411;28;20562;-61
2022/05/16 00:23:47;;;;;;;11.73;5.05;;;;;;;;;;5013210;28;20515;-61
2022/05/16 00:26:13;;;;;;;15.05;5.18;;;;;;;;;;5009932;28;20038;-60
2022/05/16 00:28:39;;;;;;;7.88;4.57;;;;;;;;;;4997809;28;20046;-60
2022/05/16 00:31:05;;;;;;;11.10;4.75;;;;;;;;;;5010325;28;20041;-61
2022/05/16 00:33:32;;;;;;;12.93;4.70;;;;;;;;;;4986881;28;20049;-60
2022/05/16 00:35:58;;;;;;;10.85;4.75;;;;;;;;;;5010391;28;20400;-61
2022/05/16 00:38:24;;;;;;;14.32;5.05;;;;;;;;;;5000477;28;20612;-60
2022/05/16 00:40:50;;;;;;;9.73;4.97;;;;;;;;;;5001463;28;20037;-61
2022/05/16 00:43:23;;;;;;;12.18;5.15;;;;;;;;;;5003666;28;20130;-61
2022/05/16 00:45:50;;;;;;;16.48;4.85;;;;;;;;;;5011765;28;20053;-61
2022/05/16 00:48:16;;;;;;;10.55;4.88;;;;;;;;;;5001428;28;20121;-61
2022/05/16 00:50:42;;;;;;;13.63;4.88;;;;;;;;;;5003104;28;20060;-60
2022/05/16 00:53:10;;;;;;;10.70;4.40;;;;;;;;;;5002152;28;20046;-61
2022/05/16 00:55:37;;;;;;;12.02;5.25;;;;;;;;;;4999989;28;20420;-60
2022/05/16 00:58:12;;;;;;;11.73;4.65;;;;;;;;;;4998607;28;20042;-60
2022/05/16 01:00:39;;;;;;;12.63;4.72;;;;;;;;;;5005078;28;20041;-60
2022/05/16 01:06:00;;;;;;;14.27;4.55;;;;;;;;;;5010248;28;20042;-60
2022/05/16 01:08:27;;;;;;;9.77;4.25;;;;;;;;;;5008460;28;20041;-59
2022/05/16 01:10:54;;;;;;;8.38;4.00;;;;;;;;;;5003990;28;20034;-60
2022/05/16 01:13:28;;;;;;;12.90;4.50;;;;;;;;;;5009409;28;20065;-60
2022/05/16 01:15:54;;;;;;;10.32;4.45;;;;;;;;;;5005042;28;20045;-60
2022/05/16 01:18:21;;;;;;;9.57;4.15;;;;;;;;;;5008730;28;20034;-59
2022/05/16 01:20:56;;;;;;;10.40;4.47;;;;;;;;;;5010505;28;20618;-59
2022/05/16 01:23:24;;;;;;;13.68;4.10;;;;;;;;;;4989691;28;20045;-59
2022/05/16 01:25:51;;;;;;;9.57;4.32;;;;;;;;;;5003426;28;20045;-59
2022/05/16 01:28:18;;;;;;;10.68;4.78;;;;;;;;;;5002570;28;20136;-60
2022/05/16 01:30:46;;;;;;;9.45;4.38;;;;;;;;;;5007270;28;20038;-59
2022/05/16 01:33:12;;;;;;;13.95;4.80;;;;;;;;;;5007772;28;20088;-60
2022/05/16 01:35:38;;;;;;;9.27;4.28;;;;;;;;;;5006539;28;20373;-59
2022/05/16 01:38:21;;;;;;;8.45;4.22;;;;;;;;;;5006855;28;20038;-60
2022/05/16 01:40:56;;;;;;;12.02;4.75;;;;;;;;;;5005467;28;20044;-59
2022/05/16 01:43:23;;;;;;;12.45;4.70;;;;;;;;;;5010359;28;20042;-59
2022/05/16 01:45:50;;;;;;;14.57;4.25;;;;;;;;;;4994170;28;20057;-59
2022/05/16 01:48:16;;;;;;;10.18;4.15;;;;;;;;;;5004839;28;20045;-60
2022/05/16 01:50:43;;;;;;;9.10;4.07;;;;;;;;;;4991726;28;20547;-60
2022/05/16 01:53:10;;;;;;;14.45;4.25;;;;;;;;;;5008283;28;20525;-60
2022/05/16 01:55:36;;;;;;;9.10;4.28;;;;;;;;;;5001772;28;20038;-59
2022/05/16 01:58:02;;;;;;;11.68;4.38;;;;;;;;;;4987930;28;20048;-60
2022/05/16 02:00:30;;;;;;;8.10;3.75;;;;;;;;;;5001919;28;20310;-60
2022/05/16 02:02:56;;;;;;;10.00;4.45;;;;;;;;;;4997885;28;20073;-60
2022/05/16 02:05:23;;;;;;;9.05;3.90;;;;;;;;;;5001815;28;20688;-60
2022/05/16 02:07:50;;;;;;;12.32;4.30;;;;;;;;;;5006527;28;20035;-60
2022/05/16 02:10:17;;;;;;;8.95;4.20;;;;;;;;;;5000166;28;20086;-60
2022/05/16 02:12:43;;;;;;;11.80;4.00;;;;;;;;;;5011258;28;20061;-60
2022/05/16 02:15:10;;;;;;;9.15;3.90;;;;;;;;;;4997706;28;20489;-60
2022/05/16 02:17:37;;;;;;;10.27;4.47;;;;;;;;;;4984817;28;20049;-60
2022/05/16 02:20:03;;;;;;;7.32;3.70;;;;;;;;;;5006834;28;20041;-60
2022/05/16 02:25:15;;;;;;;9.90;3.63;;;;;;;;;;5006455;28;20042;-60
2022/05/16 02:27:43;;;;;;;10.82;3.75;;;;;;;;;;5011334;28;20073;-60
2022/05/16 02:30:09;;;;;;;9.10;3.85;;;;;;;;;;5010968;28;20095;-60
2022/05/16 02:32:35;;;;;;;9.90;3.65;;;;;;;;;;5007636;28;20038;-60
2022/05/16 02:35:01;;;;;;;8.05;3.65;;;;;;;;;;5006843;28;20113;-60
2022/05/16 02:37:27;;;;;;;8.85;4.00;;;;;;;;;;4991733;28;20173;-60
2022/05/16 02:39:53;;;;;;;8.18;3.30;;;;;;;;;;4998654;28;20069;-60
2022/05/16 02:42:19;;;;;;;7.20;3.85;;;;;;;;;;4994963;28;20131;-60
2022/05/16 02:44:45;;;;;;;11.25;4.15;;;;;;;;;;4995546;28;20046;-60
2022/05/16 02:47:13;;;;;;;9.40;3.90;;;;;;;;;;4999426;28;20074;-60
2022/05/16 02:49:39;;;;;;;8.05;3.85;;;;;;;;;;4988600;28;20049;-60
2022/05/16 02:52:05;;;;;;;10.80;4.22;;;;;;;;;;5010612;28;20042;-60
2022/05/16 02:54:31;;;;;;;7.95;3.70;;;;;;;;;;5011396;28;20074;-60
2022/05/16 02:56:58;;;;;;;7.57;3.20;;;;;;;;;;5009519;28;20038;-60
2022/05/16 02:59:26;;;;;;;9.25;3.92;;;;;;;;;;5005804;28;20041;-60
2022/05/16 03:01:52;;;;;;;9.73;3.90;;;;;;;;;;5014819;28;20459;-60
2022/05/16 03:04:18;;;;;;;7.13;3.20;;;;;;;;;;5014230;28;20041;-60
2022/05/16 03:09:15;;;;;;;9.93;4.07;;;;;;;;;;5010713;28;20073;-62
2022/05/16 03:11:40;;;;;;;8.35;3.53;;;;;;;;;;5005036;28;20467;-62
2022/05/16 03:14:07;;;;;;;7.85;3.80;;;;;;;;;;5013562;28;20046;-61
2022/05/16 03:16:34;;;;;;;9.68;3.60;;;;;;;;;;5009709;28;20038;-61
2022/05/16 03:19:00;;;;;;;9.07;4.18;;;;;;;;;;5004043;28;20042;-61
2022/05/16 03:21:26;;;;;;;12.10;4.10;;;;;;;;;;5011413;28;20026;-61
2022/05/16 03:23:52;;;;;;;8.48;3.38;;;;;;;;;;5014113;28;20484;-61
2022/05/16 03:26:18;;;;;;;10.05;3.30;;;;;;;;;;5012968;28;20046;-61
2022/05/16 03:28:44;;;;;;;7.53;3.20;;;;;;;;;;5011484;28;20092;-61
2022/05/16 03:31:10;;;;;;;7.93;3.38;;;;;;;;;;5010102;28;20048;-61
2022/05/16 03:33:36;;;;;;;9.15;3.05;;;;;;;;;;5011898;28;20044;-61
2022/05/16 03:36:02;;;;;;;9.15;2.85;;;;;;;;;;5012230;28;20502;-62
2022/05/16 03:41:13;;;;;;;9.57;3.78;;;;;;;;;;5013865;28;20038;-62
2022/05/16 03:43:41;;;;;;;7.68;3.60;;;;;;;;;;5012987;28;20046;-61
2022/05/16 03:46:07;;;;;;;8.32;3.30;;;;;;;;;;5013690;28;20042;-61
2022/05/16 03:48:33;;;;;;;9.40;3.42;;;;;;;;;;5008952;28;20061;-61
2022/05/16 03:51:00;;;;;;;11.80;3.78;;;;;;;;;;5013616;28;20519;-61
2022/05/16 03:53:26;;;;;;;11.88;3.60;;;;;;;;;;5013328;28;20038;-61
2022/05/16 03:55:53;;;;;;;9.93;3.83;;;;;;;;;;5013166;28;20037;-61
2022/05/16 03:58:19;;;;;;;9.98;3.45;;;;;;;;;;5012149;28;20491;-62
2022/05/16 04:00:45;;;;;;;7.07;3.10;;;;;;;;;;5012424;28;20034;-62
2022/05/16 04:03:11;;;;;;;10.80;3.78;;;;;;;;;;5009557;28;20030;-62
2022/05/16 04:05:38;;;;;;;9.93;3.70;;;;;;;;;;5011567;28;20034;-62
2022/05/16 04:08:04;;;;;;;7.20;3.25;;;;;;;;;;5010929;28;20034;-62
2022/05/16 04:10:30;;;;;;;9.20;3.55;;;;;;;;;;5012262;28;20053;-62
2022/05/16 04:12:57;;;;;;;9.95;3.60;;;;;;;;;;5011860;28;20416;-62
2022/05/16 04:15:23;;;;;;;8.60;3.70;;;;;;;;;;5011606;28;20046;-62
2022/05/16 04:17:50;;;;;;;10.88;3.53;;;;;;;;;;5009581;28;20116;-62
2022/05/16 04:20:17;;;;;;;9.88;3.05;;;;;;;;;;5008759;28;20124;-62
2022/05/16 04:22:43;;;;;;;9.98;3.55;;;;;;;;;;5012332;28;20480;-62
2022/05/16 04:25:11;;;;;;;10.05;3.05;;;;;;;;;;5007709;28;20053;-62
2022/05/16 04:27:38;;;;;;;7.68;3.40;;;;;;;;;;5003780;28;20042;-62
2022/05/16 04:30:05;;;;;;;10.45;3.83;;;;;;;;;;5007672;28;20252;-62
2022/05/16 04:32:31;;;;;;;10.88;3.53;;;;;;;;;;5011227;28;20053;-61
2022/05/16 04:34:57;;;;;;;7.22;3.58;;;;;;;;;;5010533;28;20042;-60
2022/05/16 04:37:23;;;;;;;8.55;3.40;;;;;;;;;;5010887;28;20412;-61
2022/05/16 04:39:50;;;;;;;7.35;3.30;;;;;;;;;;5010909;28;20135;-61
2022/05/16 04:45:01;;;;;;;8.35;3.28;;;;;;;;;;5011167;28;20042;-61
2022/05/16 04:47:27;;;;;;;8.73;3.30;;;;;;;;;;5012551;28;20042;-61
2022/05/16 04:49:53;;;;;;;10.38;3.50;;;;;;;;;;5011821;28;20033;-61
2022/05/16 04:52:19;;;;;;;10.75;3.28;;;;;;;;;;5010996;28;20080;-61
2022/05/16 04:54:48;;;;;;;7.03;3.30;;;;;;;;;;5011291;28;20042;-61
2022/05/16 04:57:14;;;;;;;6.93;3.05;;;;;;;;;;5007279;28;20065;-60
2022/05/16 04:59:40;;;;;;;6.28;3.42;;;;;;;;;;5010505;28;20077;-61
2022/05/16 05:02:06;;;;;;;7.22;3.00;;;;;;;;;;5018250;28;20557;-61
2022/05/16 05:04:32;;;;;;;7.85;3.65;;;;;;;;;;5011334;28;20116;-60
2022/05/16 05:06:58;;;;;;;6.72;3.20;;;;;;;;;;5011918;28;20137;-61
2022/05/16 05:09:24;;;;;;;9.40;3.22;;;;;;;;;;5010879;28;20046;-60
2022/05/16 05:14:35;;;;;;;9.05;3.42;;;;;;;;;;5004383;28;20045;-61
2022/05/16 05:17:00;;;;;;;7.95;3.60;;;;;;;;;;5012180;28;20034;-61
2022/05/16 05:19:27;;;;;;;7.85;3.20;;;;;;;;;;5021738;28;20038;-61
2022/05/16 05:21:53;;;;;;;6.28;3.22;;;;;;;;;;5011585;28;20069;-61
2022/05/16 05:24:19;;;;;;;11.60;3.25;;;;;;;;;;5008880;28;20069;-61
2022/05/16 05:26:46;;;;;;;7.63;3.65;;;;;;;;;;5007088;28;20132;-61
2022/05/16 05:29:12;;;;;;;8.68;3.38;;;;;;;;;;5008396;28;20041;-61
2022/05/16 05:31:41;;;;;;;7.93;3.40;;;;;;;;;;5001385;28;21901;-61
2022/05/16 05:34:08;;;;;;;7.50;3.30;;;;;;;;;;5003105;28;20037;-61
2022/05/16 05:36:34;;;;;;;9.45;3.60;;;;;;;;;;5002916;28;20455;-61
2022/05/16 05:39:01;;;;;;;8.05;3.22;;;;;;;;;;5011007;28;20561;-61
2022/05/16 05:41:27;;;;;;;8.45;3.17;;;;;;;;;;5009731;28;20034;-61
2022/05/16 05:43:53;;;;;;;7.47;3.35;;;;;;;;;;5005032;28;20045;-61
2022/05/16 05:46:19;;;;;;;11.50;3.60;;;;;;;;;;5008635;28;20384;-61
2022/05/16 05:48:46;;;;;;;8.68;3.28;;;;;;;;;;5005765;28;20407;-61
2022/05/16 05:51:12;;;;;;;6.93;3.38;;;;;;;;;;5004343;28;20044;-61
2022/05/16 05:53:41;;;;;;;9.63;3.17;;;;;;;;;;5007563;28;20453;-60
2022/05/16 05:56:07;;;;;;;9.35;3.47;;;;;;;;;;5004409;28;20033;-60
2022/05/16 05:58:33;;;;;;;10.13;3.10;;;;;;;;;;5002711;28;20119;-61
2022/05/16 06:01:00;;;;;;;9.43;3.33;;;;;;;;;;5005752;28;20502;-61
2022/05/16 06:03:26;;;;;;;7.18;3.10;;;;;;;;;;5001531;28;21820;-61
2022/05/16 06:05:53;;;;;;;7.05;3.47;;;;;;;;;;5006799;28;20046;-61
2022/05/16 06:08:19;;;;;;;9.55;3.35;;;;;;;;;;5008482;28;20042;-61
2022/05/16 06:10:45;;;;;;;10.07;3.80;;;;;;;;;;5008958;28;20088;-60
2022/05/16 06:13:11;;;;;;;10.23;3.72;;;;;;;;;;5005702;28;20066;-61
2022/05/16 06:15:37;;;;;;;6.50;2.97;;;;;;;;;;5005786;28;20035;-61
2022/05/16 06:18:04;;;;;;;10.95;3.15;;;;;;;;;;5005608;28;20041;-61
2022/05/16 06:20:30;;;;;;;10.80;3.58;;;;;;;;;;5009862;28;20033;-61
2022/05/16 06:22:56;;;;;;;7.78;3.13;;;;;;;;;;5006580;28;20049;-61
2022/05/16 06:25:31;;;;;;;8.30;3.65;;;;;;;;;;5002916;28;20780;-61
2022/05/16 06:27:59;;;;;;;11.85;3.17;;;;;;;;;;5002469;28;20563;-61
2022/05/16 06:30:25;;;;;;;7.85;3.50;;;;;;;;;;5007864;28;20050;-61
2022/05/16 06:32:51;;;;;;;9.73;3.28;;;;;;;;;;5009807;28;20045;-61
2022/05/16 06:35:18;;;;;;;8.88;2.97;;;;;;;;;;5007981;28;20050;-61
2022/05/16 06:37:44;;;;;;;9.20;3.58;;;;;;;;;;5009418;28;20034;-61
2022/05/16 06:40:10;;;;;;;7.78;3.10;;;;;;;;;;5010750;28;20040;-61
2022/05/16 06:42:36;;;;;;;11.27;3.97;;;;;;;;;;5010382;28;20037;-61
2022/05/16 06:45:03;;;;;;;9.30;3.65;;;;;;;;;;5009318;28;20036;-61
2022/05/16 06:47:29;;;;;;;10.95;3.42;;;;;;;;;;5005358;28;20041;-61
2022/05/16 06:49:55;;;;;;;6.60;2.97;;;;;;;;;;5011791;28;20491;-62
2022/05/16 06:52:21;;;;;;;9.23;3.25;;;;;;;;;;5013586;28;20037;-61
2022/05/16 06:54:48;;;;;;;12.07;3.80;;;;;;;;;;5012116;28;20042;-61
2022/05/16 06:57:14;;;;;;;14.68;3.60;;;;;;;;;;5005314;28;20049;-61
2022/05/16 06:59:40;;;;;;;7.05;2.85;;;;;;;;;;5014177;28;20063;-61
2022/05/16 07:02:07;;;;;;;10.93;3.03;;;;;;;;;;5009577;28;20507;-61
2022/05/16 07:04:36;;;;;;;7.60;2.95;;;;;;;;;;5012614;28;20095;-61
2022/05/16 07:07:04;;;;;;;10.80;2.90;;;;;;;;;;5013056;28;20096;-61
2022/05/16 07:09:30;;;;;;;9.45;3.45;;;;;;;;;;5013401;28;20050;-61
2022/05/16 07:11:56;;;;;;;8.90;3.13;;;;;;;;;;5011948;28;20412;-61
2022/05/16 07:14:22;;;;;;;14.88;3.95;;;;;;;;;;5012742;28;20042;-61
2022/05/16 07:16:48;;;;;;;8.68;3.05;;;;;;;;;;5007526;28;20112;-61
2022/05/16 07:19:14;;;;;;;8.02;3.45;;;;;;;;;;5006837;28;20221;-61
2022/05/16 07:21:40;;;;;;;7.20;3.10;;;;;;;;;;5004555;28;20819;-61
2022/05/16 07:24:08;;;;;;;7.28;2.97;;;;;;;;;;5009606;28;20041;-61
2022/05/16 07:29:19;;;;;;;12.82;3.47;;;;;;;;;;5014653;28;20042;-61
2022/05/16 07:31:46;;;;;;;6.20;3.08;;;;;;;;;;5009959;28;20033;-61
2022/05/16 07:34:12;;;;;;;9.98;3.08;;;;;;;;;;5016645;28;20046;-61
2022/05/16 07:36:38;;;;;;;9.63;3.13;;;;;;;;;;5005638;28;21115;-61
2022/05/16 07:39:04;;;;;;;8.68;3.28;;;;;;;;;;5011053;28;20104;-61
2022/05/16 07:41:31;;;;;;;9.27;3.03;;;;;;;;;;5011988;28;20491;-61
2022/05/16 07:43:57;;;;;;;7.15;2.53;;;;;;;;;;5009924;28;20077;-61
2022/05/16 07:46:23;;;;;;;8.70;2.85;;;;;;;;;;5011308;28;20128;-61
2022/05/16 07:48:49;;;;;;;7.40;3.25;;;;;;;;;;5013154;28;20080;-61
2022/05/16 07:51:15;;;;;;;9.30;3.20;;;;;;;;;;5013961;28;20077;-61
2022/05/16 07:53:41;;;;;;;6.78;2.85;;;;;;;;;;5003772;28;20038;-62
2022/05/16 07:56:09;;;;;;;11.48;2.90;;;;;;;;;;5012273;28;20044;-61
2022/05/16 07:58:35;;;;;;;7.53;3.25;;;;;;;;;;5008514;28;20096;-62
2022/05/16 08:01:02;;;;;;;11.85;3.17;;;;;;;;;;5011961;28;20042;-61
2022/05/16 08:03:29;;;;;;;7.63;3.22;;;;;;;;;;5011775;28;20447;-61
2022/05/16 08:05:55;;;;;;;10.15;3.13;;;;;;;;;;5012696;28;20116;-61
2022/05/16 08:11:06;;;;;;;9.27;3.00;;;;;;;;;;5006988;28;20039;-61
2022/05/16 08:13:32;;;;;;;9.15;2.80;;;;;;;;;;5012169;28;20095;-61
2022/05/16 08:15:59;;;;;;;7.90;2.53;;;;;;;;;;5009365;28;20061;-61
2022/05/16 08:18:25;;;;;;;8.73;2.95;;;;;;;;;;5011844;28;20038;-61
2022/05/16 08:20:51;;;;;;;8.48;2.53;;;;;;;;;;5012809;28;20168;-61
2022/05/16 08:23:19;;;;;;;6.63;2.88;;;;;;;;;;5010918;28;20033;-61
2022/05/16 08:25:45;;;;;;;9.52;2.60;;;;;;;;;;5011859;28;20121;-61
2022/05/16 08:28:11;;;;;;;8.70;3.03;;;;;;;;;;5011448;28;20037;-61
2022/05/16 08:30:37;;;;;;;8.05;2.58;;;;;;;;;;5010477;28;20496;-61
2022/05/16 08:33:03;;;;;;;9.70;3.30;;;;;;;;;;5012255;28;20125;-61
2022/05/16 08:35:30;;;;;;;8.55;2.70;;;;;;;;;;5011430;28;20535;-61
2022/05/16 08:40:59;;;;;;;8.48;2.97;;;;;;;;;;4957151;28;20043;-61
2022/05/16 08:43:42;;;;;;;11.20;2.90;;;;;;;;;;5000496;28;20038;-61
2022/05/16 08:46:18;;;;;;;10.63;3.03;;;;;;;;;;5012476;28;20044;-61
2022/05/16 08:48:46;;;;;;;6.68;2.80;;;;;;;;;;5012526;28;20042;-61
2022/05/16 08:51:26;;;;;;;9.52;3.33;;;;;;;;;;5011735;28;20041;-61
2022/05/16 08:54:13;;;;;;;9.63;2.97;;;;;;;;;;5012797;28;20045;-61
2022/05/16 08:56:42;;;;;;;7.18;3.17;;;;;;;;;;5011271;28;20045;-61
2022/05/16 08:59:28;;;;;;;9.23;3.20;;;;;;;;;;5011940;28;20036;-61
2022/05/16 09:02:02;;;;;;;7.78;2.80;;;;;;;;;;5012573;28;20038;-61
2022/05/16 09:04:30;;;;;;;6.93;2.72;;;;;;;;;;5011116;28;20117;-61
2022/05/16 09:09:56;;;;;;;6.25;3.10;;;;;;;;;;5007182;28;20049;-61
2022/05/16 09:12:25;;;;;;;6.93;3.17;;;;;;;;;;5006851;28;20037;-61
2022/05/16 09:15:00;;;;;;;15.02;3.53;;;;;;;;;;5012426;28;20037;-61
2022/05/16 09:17:48;;;;;;;8.55;3.08;;;;;;;;;;5011600;28;20034;-61
2022/05/16 09:20:22;;;;;;;10.18;3.13;;;;;;;;;;5010214;28;20041;-61
2022/05/16 09:23:09;;;;;;;8.70;3.35;;;;;;;;;;4993879;28;20042;-61
2022/05/16 09:26:01;;;;;;;8.32;3.15;;;;;;;;;;5012391;28;20057;-61
2022/05/16 09:28:37;;;;;;;8.15;2.85;;;;;;;;;;4974155;28;20057;-61
2022/05/16 09:31:16;;;;;;;8.93;2.90;;;;;;;;;;5012473;28;20361;-61
2022/05/16 09:33:43;;;;;;;9.93;3.58;;;;;;;;;;5010161;28;20558;-61
2022/05/16 09:36:12;;;;;;;7.47;3.45;;;;;;;;;;5011969;28;20069;-61
2022/05/16 09:38:43;;;;;;;8.13;2.88;;;;;;;;;;4993436;28;20108;-61
2022/05/16 09:41:09;;;;;;;9.43;2.92;;;;;;;;;;5012184;28;20050;-61
2022/05/16 09:43:40;;;;;;;8.90;3.03;;;;;;;;;;5012215;28;20040;-61
2022/05/16 09:46:18;;;;;;;8.85;3.08;;;;;;;;;;5010774;28;20046;-61
2022/05/16 09:48:44;;;;;;;7.35;2.80;;;;;;;;;;5010215;28;20040;-61
2022/05/16 09:51:10;;;;;;;6.30;3.00;;;;;;;;;;5011004;28;20113;-61
2022/05/16 09:53:36;;;;;;;7.57;3.33;;;;;;;;;;4994346;28;20042;-61
2022/05/16 09:56:16;;;;;;;9.18;3.53;;;;;;;;;;5011682;28;20041;-61
2022/05/16 09:58:50;;;;;;;9.25;3.78;;;;;;;;;;5011378;28;20049;-61
2022/05/16 10:01:35;;;;;;;9.48;3.15;;;;;;;;;;5009825;28;20051;-61
2022/05/16 10:04:09;;;;;;;8.27;3.10;;;;;;;;;;5011311;28;20045;-61
2022/05/16 10:06:37;;;;;;;9.80;3.10;;;;;;;;;;5011950;28;20130;-61
2022/05/16 10:09:07;;;;;;;10.45;3.38;;;;;;;;;;5011320;28;20481;-61
2022/05/16 10:11:33;;;;;;;10.25;3.40;;;;;;;;;;5011460;28;20435;-61
2022/05/16 10:14:00;;;;;;;8.43;3.22;;;;;;;;;;5010455;28;20042;-61
2022/05/16 10:16:27;;;;;;;9.68;3.10;;;;;;;;;;5011114;28;20084;-61
2022/05/16 10:18:55;;;;;;;8.10;3.15;;;;;;;;;;5010696;28;20052;-61
2022/05/16 10:21:35;;;;;;;9.38;3.58;;;;;;;;;;4994123;28;20071;-61
2022/05/16 10:24:03;;;;;;;6.90;2.85;;;;;;;;;;5011508;28;20081;-61
2022/05/16 10:26:31;;;;;;;11.73;3.08;;;;;;;;;;4981211;28;20046;-61
2022/05/16 10:28:59;;;;;;;8.18;3.13;;;;;;;;;;5013106;28;21425;-62
2022/05/16 10:34:17;;;;;;;8.75;2.92;;;;;;;;;;5015186;28;20503;-61
2022/05/16 10:36:47;;;;;;;5.32;3.03;;;;;;;;;;5014879;28;20407;-61
2022/05/16 10:39:16;;;;;;;7.78;3.55;;;;;;;;;;5014665;28;20046;-61
2022/05/16 10:42:04;;;;;;;7.75;3.00;;;;;;;;;;5015672;28;20088;-61
2022/05/16 10:44:53;;;;;;;7.72;3.38;;;;;;;;;;5014076;28;20046;-61
2022/05/16 10:47:26;;;;;;;6.20;3.22;;;;;;;;;;4997530;28;20054;-61
2022/05/16 10:50:15;;;;;;;7.75;3.50;;;;;;;;;;5013918;28;20045;-61
2022/05/16 10:52:44;;;;;;;8.23;3.50;;;;;;;;;;4969110;28;20096;-61
2022/05/16 10:55:10;;;;;;;9.23;3.22;;;;;;;;;;5015068;28;20393;-61
2022/05/16 10:57:55;;;;;;;6.38;3.05;;;;;;;;;;5009604;28;20031;-61
2022/05/16 11:00:26;;;;;;;6.47;3.03;;;;;;;;;;4996130;28;20046;-61
2022/05/16 11:02:52;;;;;;;5.85;3.10;;;;;;;;;;4997362;28;20511;-61
2022/05/16 11:05:42;;;;;;;8.90;3.20;;;;;;;;;;5014708;28;20041;-61
2022/05/16 11:08:11;;;;;;;10.13;3.45;;;;;;;;;;5013654;28;20056;-60
2022/05/16 11:10:55;;;;;;;8.43;4.00;;;;;;;;;;5014148;28;20113;-61
2022/05/16 11:13:36;;;;;;;9.35;3.78;;;;;;;;;;5013287;28;20041;-61
2022/05/16 11:16:11;;;;;;;8.02;3.38;;;;;;;;;;5014318;28;20236;-61
2022/05/16 11:18:58;;;;;;;10.18;3.58;;;;;;;;;;5013578;28;20492;-61
2022/05/16 11:21:39;;;;;;;7.90;3.92;;;;;;;;;;5014762;28;20038;-61
2022/05/16 11:24:10;;;;;;;7.95;3.60;;;;;;;;;;5013321;28;21466;-61
2022/05/16 11:26:42;;;;;;;9.57;3.67;;;;;;;;;;5012180;28;20045;-61
2022/05/16 11:29:23;;;;;;;6.80;3.35;;;;;;;;;;5013331;28;20046;-61
2022/05/16 11:31:59;;;;;;;9.82;3.65;;;;;;;;;;4997047;28;20050;-61
2022/05/16 11:34:51;;;;;;;8.20;4.13;;;;;;;;;;5013911;28;20033;-61
2022/05/16 11:37:26;;;;;;;8.98;3.78;;;;;;;;;;4976711;28;20050;-61
2022/05/16 11:39:52;;;;;;;7.43;3.85;;;;;;;;;;5013796;28;20038;-61
2022/05/16 11:42:25;;;;;;;12.73;3.88;;;;;;;;;;5012126;28;20106;-61
2022/05/16 11:44:55;;;;;;;8.70;3.53;;;;;;;;;;5013744;28;20109;-61
2022/05/16 11:47:26;;;;;;;9.32;3.90;;;;;;;;;;5013904;28;20046;-61
2022/05/16 11:50:16;;;;;;;9.63;4.00;;;;;;;;;;5013266;28;20041;-61
2022/05/16 11:53:02;;;;;;;8.85;4.07;;;;;;;;;;4977283;28;20053;-61
2022/05/16 12:01:03;;;;;;;11.50;3.92;;;;;;;;;;5013629;28;20045;-61
2022/05/16 12:03:34;;;;;;;11.18;4.57;;;;;;;;;;5013881;28;20439;-61
2022/05/16 12:06:14;;;;;;;7.55;3.92;;;;;;;;;;5013826;28;20045;-61
2022/05/16 12:08:41;;;;;;;10.00;4.32;;;;;;;;;;5012163;28;20476;-61
2022/05/16 12:11:09;;;;;;;7.85;4.13;;;;;;;;;;5012430;28;20470;-61
2022/05/16 12:13:39;;;;;;;15.00;4.20;;;;;;;;;;5013399;28;20046;-60
2022/05/16 12:16:14;;;;;;;9.35;4.28;;;;;;;;;;5013097;28;20065;-61
2022/05/16 12:18:43;;;;;;;6.50;3.80;;;;;;;;;;5013102;28;20091;-61
2022/05/16 12:21:29;;;;;;;5.45;3.47;;;;;;;;;;5013058;28;20045;-61
2022/05/16 12:23:57;;;;;;;8.25;3.85;;;;;;;;;;4996875;28;20053;-61
2022/05/16 12:26:26;;;;;;;7.97;3.40;;;;;;;;;;5012835;28;20581;-61
2022/05/16 12:29:04;;;;;;;7.82;3.25;;;;;;;;;;5012790;28;20096;-61
2022/05/16 12:31:40;;;;;;;5.70;2.85;;;;;;;;;;5012587;28;20042;-61
2022/05/16 12:34:06;;;;;;;4.50;2.70;;;;;;;;;;5013177;28;20073;-61
2022/05/16 12:36:32;;;;;;;5.88;2.65;;;;;;;;;;5013012;28;20496;-61
2022/05/16 12:39:03;;;;;;;5.97;3.00;;;;;;;;;;5010655;28;20033;-61
2022/05/16 12:41:47;;;;;;;6.53;3.22;;;;;;;;;;5004890;28;20088;-61
2022/05/16 12:44:24;;;;;;;7.50;3.28;;;;;;;;;;5013079;28;20041;-61
2022/05/16 12:46:59;;;;;;;6.03;2.83;;;;;;;;;;5012612;28;20042;-61
2022/05/16 12:49:31;;;;;;;6.97;2.90;;;;;;;;;;5011859;28;20053;-61
2022/05/16 12:52:05;;;;;;;7.30;3.30;;;;;;;;;;5012007;28;20042;-61
2022/05/16 12:54:56;;;;;;;7.55;2.67;;;;;;;;;;5010289;28;20038;-61
2022/05/16 12:57:22;;;;;;;6.38;3.22;;;;;;;;;;5012263;28;20038;-61
2022/05/16 13:00:01;;;;;;;6.93;3.20;;;;;;;;;;5012244;28;20112;-61
2022/05/16 13:02:30;;;;;;;6.35;3.30;;;;;;;;;;5011985;28;20496;-61
2022/05/16 13:05:15;;;;;;;8.75;3.25;;;;;;;;;;5011641;28;20050;-61
2022/05/16 13:07:56;;;;;;;5.80;3.00;;;;;;;;;;5005883;28;20069;-61
2022/05/16 13:10:37;;;;;;;5.00;3.00;;;;;;;;;;5011132;28;20045;-61
2022/05/16 13:13:22;;;;;;;12.52;2.92;;;;;;;;;;5012344;28;20081;-61
2022/05/16 13:15:48;;;;;;;7.22;3.90;;;;;;;;;;5012103;28;20132;-61
2022/05/16 13:18:34;;;;;;;10.75;3.70;;;;;;;;;;5012269;28;20125;-61
2022/05/16 13:21:01;;;;;;;7.35;3.50;;;;;;;;;;5011666;28;20045;-60
2022/05/16 13:23:27;;;;;;;7.38;3.28;;;;;;;;;;4994335;28;20413;-61
2022/05/16 13:31:36;;;;;;;9.88;3.95;;;;;;;;;;4992262;28;20047;-61
2022/05/16 13:34:02;;;;;;;9.05;4.35;;;;;;;;;;4998708;28;20401;-61
2022/05/16 13:36:29;;;;;;;7.75;3.90;;;;;;;;;;5003862;28;20037;-61
2022/05/16 13:38:57;;;;;;;8.40;3.40;;;;;;;;;;5010563;28;20562;-61
2022/05/16 13:41:25;;;;;;;7.30;3.58;;;;;;;;;;5011706;28;20041;-61
2022/05/16 13:43:51;;;;;;;6.78;3.67;;;;;;;;;;5011944;28;20165;-61
2022/05/16 13:46:18;;;;;;;12.90;3.75;;;;;;;;;;5011821;28;20502;-61
2022/05/16 13:48:44;;;;;;;6.15;2.92;;;;;;;;;;5010359;28;20116;-61
2022/05/16 13:51:10;;;;;;;5.55;2.97;;;;;;;;;;5011444;28;20156;-61
2022/05/16 13:53:38;;;;;;;8.60;4.53;;;;;;;;;;5011244;28;20046;-61
2022/05/16 13:56:04;;;;;;;10.40;4.68;;;;;;;;;;5011294;28;20041;-61
2022/05/16 13:58:32;;;;;;;8.55;4.90;;;;;;;;;;5005710;28;20030;-61
2022/05/16 14:01:17;;;;;;;13.32;4.68;;;;;;;;;;5010160;28;20042;-61
2022/05/16 14:03:49;;;;;;;9.50;4.95;;;;;;;;;;5011726;28;20056;-61
2022/05/16 14:06:27;;;;;;;7.63;4.60;;;;;;;;;;5005462;28;20096;-61
2022/05/16 14:08:53;;;;;;;8.90;5.00;;;;;;;;;;5006595;28;20496;-61
2022/05/16 14:11:20;;;;;;;11.43;5.78;;;;;;;;;;5009777;28;20048;-61
2022/05/16 14:13:51;;;;;;;11.20;5.22;;;;;;;;;;5009572;28;20133;-61
2022/05/16 14:16:19;;;;;;;9.82;5.03;;;;;;;;;;5008009;28;20101;-61
2022/05/16 14:18:45;;;;;;;9.80;4.82;;;;;;;;;;5008644;28;20061;-61
2022/05/16 14:21:19;;;;;;;5.60;4.28;;;;;;;;;;4997507;28;20447;-61
2022/05/16 14:23:46;;;;;;;9.15;4.55;;;;;;;;;;5007708;28;20095;-61
2022/05/16 14:26:17;;;;;;;10.05;4.45;;;;;;;;;;4996753;28;20121;-61
2022/05/16 14:28:45;;;;;;;9.68;5.13;;;;;;;;;;5010912;28;20057;-61
2022/05/16 14:31:19;;;;;;;12.10;6.75;;;;;;;;;;5012998;28;20033;-61
2022/05/16 14:34:02;;;;;;;11.07;6.82;;;;;;;;;;5004421;28;20062;-61
2022/05/16 14:36:39;;;;;;;15.95;6.07;;;;;;;;;;5005096;28;20461;-61
2022/05/16 14:39:13;;;;;;;8.73;5.65;;;;;;;;;;5018299;28;20487;-61
2022/05/16 14:41:47;;;;;;;14.10;6.35;;;;;;;;;;5013647;28;20072;-61
2022/05/16 14:44:17;;;;;;;9.32;6.18;;;;;;;;;;5010878;28;20100;-61
2022/05/16 14:46:43;;;;;;;10.93;7.18;;;;;;;;;;5005555;28;20518;-61
2022/05/16 14:49:11;;;;;;;14.98;7.85;;;;;;;;;;5007604;28;20073;-61
2022/05/16 14:51:38;;;;;;;11.68;7.75;;;;;;;;;;5011978;28;20049;-61
2022/05/16 14:54:15;;;;;;;14.85;7.45;;;;;;;;;;5012824;28;20411;-61
2022/05/16 14:56:41;;;;;;;11.68;8.27;;;;;;;;;;5008755;28;20042;-61
2022/05/16 14:59:07;;;;;;;18.60;8.18;;;;;;;;;;5012958;28;20149;-61
2022/05/16 15:04:18;;;;;;;16.60;8.88;;;;;;;;;;5011773;28;20491;-61
2022/05/16 15:06:44;;;;;;;13.65;8.35;;;;;;;;;;5014371;28;20037;-61
2022/05/16 15:09:15;;;;;;;18.42;9.85;;;;;;;;;;5026155;23;20041;-60
2022/05/16 15:11:46;;;;;;;18.50;9.27;;;;;;;;;;5016524;28;20084;-60
2022/05/16 15:14:12;;;;;;;18.80;9.63;;;;;;;;;;5028636;28;20484;-60
2022/05/16 15:16:39;;;;;;;16.77;9.40;;;;;;;;;;5022597;28;20132;-61
2022/05/16 15:19:07;;;;;;;18.25;10.43;;;;;;;;;;5014596;28;20499;-60
2022/05/16 15:21:34;;;;;;;24.90;9.93;;;;;;;;;;5005311;28;20688;-61
2022/05/16 15:24:02;;;;;;;21.83;11.32;;;;;;;;;;5008852;28;20042;-61
2022/05/16 15:26:28;;;;;;;21.30;13.45;;;;;;;;;;5005401;28;20107;-60
2022/05/16 15:28:54;;;;;;;22.02;13.35;;;;;;;;;;4991360;28;20499;-61
2022/05/16 15:31:20;;;;;;;27.15;15.80;;;;;;;;;;5014033;28;20085;-60
2022/05/16 15:33:46;;;;;;;26.35;17.73;;;;;;;;;;5014064;28;20070;-61
2022/05/16 15:36:12;;;;;;;32.55;20.35;;;;;;;;;;5006969;28;20074;-61